Terminal Aerodrome Forecast
Issued by NWS Boston, MA

Home | Current Version | Previous Version | Text Only | Print | Product List | Glossary On
Versions: 1 2 3 4 5 6 7 8 9 10 11 12 13 14 15 16 17 18 19 20 21 22 23 24
000
FTUS41 KBOX 270814 AAA
TAFBOS
TAF AMD
KBOS 270814Z 2708/2812 21004KT P6SM SKC
     FM271600 20010KT P6SM VCSH BKN060
     FM272000 17010KT P6SM VCTS BKN050CB
     FM280200 23007KT P6SM BKN250
     FM280800 28006KT P6SM FEW250=

USA.gov is the U.S. government's official web portal to all federal, state and local government web resources and services.